createdAt,value
2019-02-03T00:00:46.259Z,16.90
2019-02-03T00:03:13.875Z,16.57
2019-02-03T00:05:41.447Z,20.67
2019-02-03T00:08:09.025Z,16.07
2019-02-03T00:10:38.811Z,17.50
2019-02-03T00:13:06.573Z,17.23
2019-02-03T00:15:34.152Z,14.77
2019-02-03T00:18:01.830Z,14.33
2019-02-03T00:20:29.413Z,16.40
2019-02-03T00:22:56.996Z,15.23
2019-02-03T00:25:25.525Z,15.20
2019-02-03T00:27:53.091Z,12.80
2019-02-03T00:30:21.594Z,17.10
2019-02-03T00:32:51.535Z,14.47
2019-02-03T00:35:16.972Z,16.63
2019-02-03T00:37:44.540Z,20.53
2019-02-03T00:40:13.031Z,17.30
2019-02-03T00:42:40.606Z,13.93
2019-02-03T00:45:08.180Z,17.50
2019-02-03T00:47:35.754Z,15.90
2019-02-03T00:50:04.232Z,45.73
2019-02-03T00:52:31.830Z,18.67
2019-02-03T00:54:59.412Z,20.77
2019-02-03T00:57:27.752Z,22.17
2019-02-03T00:59:55.329Z,22.23
2019-02-03T01:02:22.902Z,37.60
2019-02-03T01:04:50.498Z,24.63
2019-02-03T01:07:27.277Z,27.30
2019-02-03T01:09:45.718Z,26.47
2019-02-03T01:12:13.292Z,24.63
2019-02-03T01:14:40.868Z,28.60
2019-02-03T01:17:08.656Z,26.17
2019-02-03T01:19:36.288Z,46.47
2019-02-03T01:22:03.860Z,26.10
2019-02-03T01:24:33.133Z,28.03
2019-02-03T01:27:01.692Z,29.53
2019-02-03T01:29:29.263Z,24.67
2019-02-03T01:31:56.847Z,30.90
2019-02-03T01:34:24.480Z,37.63
2019-02-03T01:36:52.060Z,26.90
2019-02-03T01:39:19.632Z,26.63
2019-02-03T01:41:47.203Z,30.43
2019-02-03T01:44:14.779Z,26.70
2019-02-03T01:46:43.297Z,48.13
2019-02-03T01:49:10.868Z,27.07
2019-02-03T01:51:38.447Z,34.57
2019-02-03T01:54:07.947Z,34.47
2019-02-03T01:56:35.531Z,27.87
2019-02-03T01:59:03.105Z,36.70
2019-02-03T02:01:30.688Z,19.43
2019-02-03T02:03:59.177Z,20.07
2019-02-03T02:06:26.752Z,36.70
2019-02-03T02:08:54.323Z,23.97
2019-02-03T02:11:21.896Z,32.23
2019-02-03T02:13:49.469Z,31.90
2019-02-03T02:16:18.992Z,39.97
2019-02-03T02:18:46.563Z,33.53
2019-02-03T02:21:16.116Z,36.33
2019-02-03T02:23:43.688Z,31.13
2019-02-03T02:26:11.264Z,28.23
2019-02-03T02:28:38.844Z,39.83
2019-02-03T02:31:06.416Z,21.93
2019-02-03T02:33:34.765Z,23.50
2019-02-03T02:36:03.155Z,19.90
2019-02-03T02:38:30.724Z,17.33
2019-02-03T02:40:58.301Z,16.67
2019-02-03T02:43:25.871Z,16.97
2019-02-03T02:45:53.560Z,16.40
2019-02-03T02:48:21.137Z,16.93
2019-02-03T02:50:50.619Z,19.73
2019-02-03T02:53:18.193Z,41.30
2019-02-03T02:55:45.781Z,17.70
2019-02-03T02:58:13.457Z,17.53
2019-02-03T03:00:40.987Z,28.67
2019-02-03T03:03:08.572Z,15.20
2019-02-03T03:05:36.155Z,36.90
2019-02-03T03:08:04.541Z,22.67
2019-02-03T03:10:32.134Z,19.50
2019-02-03T03:12:59.704Z,21.57
2019-02-03T03:15:28.227Z,17.73
2019-02-03T03:17:55.817Z,19.50
2019-02-03T03:20:23.409Z,41.50
2019-02-03T03:22:51.036Z,22.57
2019-02-03T03:25:18.618Z,21.80
2019-02-03T03:27:46.204Z,25.90
2019-02-03T03:30:22.466Z,25.40
2019-02-03T03:32:50.161Z,22.60
2019-02-03T03:35:17.715Z,21.70
2019-02-03T03:37:45.327Z,25.60
2019-02-03T03:40:14.005Z,19.90
2019-02-03T03:42:41.586Z,20.87
2019-02-03T03:45:09.160Z,17.17
2019-02-03T03:47:36.929Z,46.47
2019-02-03T03:50:06.305Z,20.73
2019-02-03T03:52:33.929Z,27.30
2019-02-03T03:55:01.506Z,18.83
2019-02-03T03:57:29.103Z,23.87
2019-02-03T03:59:56.694Z,28.87
2019-02-03T04:02:24.372Z,17.13
2019-02-03T04:04:51.908Z,52.80
2019-02-03T04:07:19.532Z,25.00
2019-02-03T04:09:47.100Z,14.57
2019-02-03T04:12:14.685Z,42.47
2019-02-03T04:14:43.036Z,27.33
2019-02-03T04:17:10.619Z,15.17
2019-02-03T04:19:38.192Z,12.73
2019-02-03T04:22:05.764Z,20.53
2019-02-03T04:24:33.382Z,18.30
2019-02-03T04:27:02.898Z,15.80
2019-02-03T04:29:30.483Z,15.90
2019-02-03T04:31:58.938Z,38.83
2019-02-03T04:34:29.752Z,16.50
2019-02-03T04:36:54.132Z,15.03
2019-02-03T04:39:21.752Z,14.90
2019-02-03T04:41:49.324Z,19.00
2019-02-03T04:44:16.897Z,17.33
2019-02-03T04:46:44.476Z,30.13
2019-02-03T04:49:12.049Z,15.00
2019-02-03T04:51:40.401Z,19.00
2019-02-03T04:54:07.984Z,15.33
2019-02-03T04:56:35.566Z,16.67
2019-02-03T04:59:03.150Z,29.67
2019-02-03T05:01:31.659Z,20.30
2019-02-03T05:03:59.232Z,18.70
2019-02-03T05:06:27.740Z,18.43
2019-02-03T05:08:55.313Z,24.63
2019-02-03T05:11:22.888Z,18.87
2019-02-03T05:13:50.466Z,23.80
2019-02-03T05:16:19.932Z,16.83
2019-02-03T05:18:47.510Z,19.47
2019-02-03T05:21:15.084Z,17.60
2019-02-03T05:23:42.810Z,39.90
2019-02-03T05:26:10.270Z,9.87
2019-02-03T05:28:37.865Z,24.27
2019-02-03T05:31:05.444Z,15.03
2019-02-03T05:33:33.024Z,17.23
2019-02-03T05:36:00.587Z,9.57
2019-02-03T05:38:28.190Z,15.80
2019-02-03T05:40:55.770Z,17.73
2019-02-03T05:43:24.120Z,27.00
2019-02-03T05:45:51.688Z,9.70
2019-02-03T05:48:19.264Z,24.53
2019-02-03T05:50:46.841Z,16.07
2019-02-03T05:53:14.434Z,16.50
2019-02-03T05:55:42.006Z,9.03
2019-02-03T05:58:12.312Z,16.77
2019-02-03T06:00:39.893Z,18.70
2019-02-03T06:03:07.472Z,15.20
2019-02-03T06:05:35.048Z,8.70
2019-02-03T06:08:02.630Z,21.03
2019-02-03T06:10:30.220Z,9.10
2019-02-03T06:12:57.832Z,12.60
2019-02-03T06:15:25.423Z,9.87
2019-02-03T06:17:54.050Z,8.87
2019-02-03T06:20:24.325Z,9.70
2019-02-03T06:22:51.896Z,13.90
2019-02-03T06:25:20.478Z,13.83
2019-02-03T06:27:48.104Z,7.53
2019-02-03T06:33:32.817Z,16.23
2019-02-03T06:36:00.409Z,14.77
2019-02-03T06:38:27.984Z,31.63
2019-02-03T06:40:57.476Z,17.03
2019-02-03T06:43:25.045Z,34.60
2019-02-03T06:45:52.616Z,12.40
2019-02-03T06:48:20.232Z,13.30
2019-02-03T06:50:47.817Z,13.77
2019-02-03T06:53:16.145Z,6.77
2019-02-03T06:55:43.723Z,27.63
2019-02-03T06:58:11.287Z,7.70
2019-02-03T07:00:38.864Z,24.40
2019-02-03T07:03:07.216Z,7.87
2019-02-03T07:05:34.781Z,9.80
2019-02-03T07:08:02.385Z,16.77
2019-02-03T07:10:31.901Z,15.00
2019-02-03T07:12:59.481Z,27.97
2019-02-03T07:15:27.064Z,14.40
2019-02-03T07:17:56.548Z,21.20
2019-02-03T07:20:24.129Z,16.47
2019-02-03T07:22:53.412Z,11.33
2019-02-03T07:25:20.989Z,12.10
2019-02-03T07:27:48.564Z,14.53
2019-02-03T07:30:18.972Z,10.47
2019-02-03T07:32:46.543Z,10.77
2019-02-03T07:35:14.122Z,15.53
2019-02-03T07:37:41.701Z,12.00
2019-02-03T07:40:15.728Z,12.73
2019-02-03T07:42:43.314Z,12.03
2019-02-03T07:45:10.889Z,12.77
2019-02-03T07:47:38.462Z,17.20
2019-02-03T07:50:07.764Z,15.77
2019-02-03T07:52:35.340Z,18.27
2019-02-03T07:55:02.965Z,18.17
2019-02-03T07:57:30.541Z,15.97
2019-02-03T07:59:58.116Z,18.37
2019-02-03T08:02:25.694Z,19.63
2019-02-03T08:04:53.318Z,21.77
2019-02-03T08:07:20.891Z,16.20
2019-02-03T08:09:48.463Z,23.37
2019-02-03T08:12:16.964Z,27.70
2019-02-03T08:14:44.549Z,98.83
2019-02-03T08:17:13.061Z,20.37
2019-02-03T08:19:40.649Z,18.03
2019-02-03T08:22:08.232Z,24.00
2019-02-03T08:24:35.810Z,20.03
2019-02-03T08:27:03.399Z,17.53
2019-02-03T08:29:32.904Z,16.57
2019-02-03T08:32:00.476Z,16.00
2019-02-03T08:34:28.062Z,16.43
2019-02-03T08:36:55.680Z,27.30
2019-02-03T08:39:23.265Z,35.47
2019-02-03T08:41:50.839Z,19.73
2019-02-03T08:44:18.417Z,24.40
2019-02-03T08:46:46.959Z,19.10
2019-02-03T08:49:14.536Z,19.67
2019-02-03T08:51:42.119Z,19.63
2019-02-03T08:54:09.712Z,21.90
2019-02-03T08:56:37.289Z,26.33
2019-02-03T08:59:04.866Z,24.10
2019-02-03T09:01:32.436Z,30.30
2019-02-03T09:04:00.005Z,30.43
2019-02-03T09:06:29.480Z,16.77
2019-02-03T09:08:57.111Z,13.83
2019-02-03T09:11:24.707Z,23.00
2019-02-03T09:13:52.286Z,12.70
2019-02-03T09:16:19.864Z,14.30
2019-02-03T09:18:48.372Z,18.63
2019-02-03T09:21:15.952Z,19.63
2019-02-03T09:23:43.567Z,24.47
2019-02-03T09:26:11.148Z,27.33
2019-02-03T09:28:38.730Z,30.93
2019-02-03T09:31:07.344Z,27.37
2019-02-03T09:33:34.911Z,32.87
2019-02-03T09:36:02.483Z,43.40
2019-02-03T09:38:30.064Z,34.30
2019-02-03T09:41:00.329Z,40.43
2019-02-03T09:43:26.798Z,38.00
2019-02-03T09:45:54.385Z,40.63
2019-02-03T09:48:22.084Z,39.50
2019-02-03T09:50:51.686Z,42.00
2019-02-03T09:53:19.264Z,51.87
2019-02-03T09:55:46.884Z,51.63
2019-02-03T09:58:14.520Z,48.50
2019-02-03T10:00:42.085Z,54.70
2019-02-03T10:03:10.421Z,53.13
2019-02-03T10:05:38.011Z,58.73
2019-02-03T10:08:05.631Z,73.47
2019-02-03T10:10:34.955Z,77.83
2019-02-03T10:13:02.544Z,68.83
2019-02-03T10:15:30.136Z,67.40
2019-02-03T10:17:57.720Z,73.80
2019-02-03T10:20:26.329Z,61.07
2019-02-03T10:22:54.683Z,71.73
2019-02-03T10:25:24.965Z,67.50
2019-02-03T10:27:52.546Z,69.00
2019-02-03T10:30:21.141Z,56.80
2019-02-03T10:32:48.721Z,73.40
2019-02-03T10:35:23.505Z,68.87
2019-02-03T10:37:45.855Z,119.90
2019-02-03T10:40:14.185Z,65.43
2019-02-03T10:42:41.776Z,59.47
2019-02-03T10:45:09.374Z,58.90
2019-02-03T10:47:36.949Z,63.10
2019-02-03T10:50:04.529Z,64.93
2019-02-03T10:52:32.109Z,62.33
2019-02-03T10:54:59.761Z,64.73
2019-02-03T10:57:27.316Z,57.63
2019-02-03T10:59:55.709Z,53.10
2019-02-03T11:02:23.308Z,56.93
2019-02-03T11:04:50.894Z,48.27
2019-02-03T11:07:18.476Z,59.53
2019-02-03T11:09:46.065Z,57.50
2019-02-03T11:12:13.660Z,48.80
2019-02-03T11:14:41.249Z,57.40
2019-02-03T11:17:08.880Z,52.27
2019-02-03T11:19:36.469Z,52.27
2019-02-03T11:22:04.057Z,50.77
2019-02-03T11:24:32.410Z,60.23
2019-02-03T11:26:59.996Z,58.40
2019-02-03T11:29:27.703Z,49.80
2019-02-03T11:31:55.300Z,51.17
2019-02-03T11:34:24.844Z,48.87
2019-02-03T11:36:52.429Z,57.43
2019-02-03T11:39:20.026Z,52.70
2019-02-03T11:41:49.629Z,61.27
2019-02-03T11:44:18.096Z,50.10
2019-02-03T11:46:45.676Z,61.37
2019-02-03T11:49:13.260Z,46.90
2019-02-03T11:51:41.818Z,50.10
2019-02-03T11:54:09.408Z,41.60
2019-02-03T11:56:36.996Z,89.43
2019-02-03T11:59:04.572Z,47.70
2019-02-03T12:01:32.152Z,43.97
2019-02-03T12:03:59.750Z,48.70
2019-02-03T12:06:27.393Z,52.63
2019-02-03T12:08:54.977Z,52.20
2019-02-03T12:11:22.560Z,49.33
2019-02-03T12:13:50.141Z,41.93
2019-02-03T12:16:18.480Z,39.80
2019-02-03T12:18:46.065Z,52.80
2019-02-03T12:21:13.689Z,49.70
2019-02-03T12:23:41.280Z,43.63
2019-02-03T12:26:08.861Z,42.53
2019-02-03T12:28:38.394Z,44.53
2019-02-03T12:31:05.993Z,48.30
2019-02-03T12:33:33.568Z,49.90
2019-02-03T12:36:01.272Z,37.53
2019-02-03T12:38:28.840Z,45.07
2019-02-03T12:40:58.329Z,51.30
2019-02-03T12:43:25.914Z,49.63
2019-02-03T12:45:54.499Z,50.13
2019-02-03T12:48:22.240Z,48.27
2019-02-03T12:50:50.203Z,38.97
2019-02-03T12:53:17.780Z,41.97
2019-02-03T12:55:45.360Z,46.97
2019-02-03T12:58:12.945Z,40.30
2019-02-03T13:00:40.644Z,38.50
2019-02-03T13:03:08.216Z,34.40
2019-02-03T13:05:35.798Z,36.90
2019-02-03T13:08:03.416Z,42.23
2019-02-03T13:10:33.015Z,43.77
2019-02-03T13:13:00.594Z,37.70
2019-02-03T13:15:29.809Z,41.90
2019-02-03T13:17:57.383Z,37.50
2019-02-03T13:20:25.028Z,40.93
2019-02-03T13:22:52.692Z,41.37
2019-02-03T13:25:20.264Z,39.47
2019-02-03T13:27:49.883Z,37.10
2019-02-03T13:30:33.146Z,37.37
2019-02-03T13:33:02.649Z,47.93
2019-02-03T13:35:30.233Z,39.67
2019-02-03T13:37:57.817Z,38.70
2019-02-03T13:40:25.401Z,38.77
2019-02-03T13:42:52.976Z,46.27
2019-02-03T13:45:21.215Z,37.83
2019-02-03T13:47:48.184Z,40.70
2019-02-03T13:50:15.761Z,38.20
2019-02-03T13:52:43.349Z,42.53
2019-02-03T13:55:11.697Z,42.87
2019-02-03T13:57:39.277Z,37.73
2019-02-03T14:00:12.260Z,30.13
2019-02-03T14:02:39.980Z,36.93
2019-02-03T14:05:07.564Z,39.23
2019-02-03T14:07:37.088Z,35.70
2019-02-03T14:10:02.774Z,38.90
2019-02-03T14:12:30.366Z,38.50
2019-02-03T14:14:58.716Z,38.67
2019-02-03T14:17:26.292Z,39.37
2019-02-03T14:19:53.863Z,40.83
2019-02-03T14:22:23.339Z,40.67
2019-02-03T14:24:50.913Z,44.63
2019-02-03T14:27:20.407Z,53.03
2019-02-03T14:29:47.993Z,56.40
2019-02-03T14:32:15.576Z,68.10
2019-02-03T14:34:43.152Z,40.57
2019-02-03T14:37:10.731Z,49.23
2019-02-03T14:39:38.310Z,46.60
2019-02-03T14:42:05.897Z,42.77
2019-02-03T14:44:33.480Z,47.77
2019-02-03T14:47:01.055Z,47.40
2019-02-03T14:49:28.679Z,43.87
2019-02-03T14:51:58.184Z,45.80
2019-02-03T14:56:59.815Z,46.47
2019-02-03T14:59:27.385Z,47.73
2019-02-03T15:01:55.740Z,52.13
2019-02-03T15:04:24.080Z,49.17
2019-02-03T15:06:51.668Z,43.50
2019-02-03T15:09:21.939Z,44.27
2019-02-03T15:11:47.701Z,53.40
2019-02-03T15:14:15.284Z,49.73
2019-02-03T15:16:42.895Z,45.23
2019-02-03T15:19:10.467Z,47.53
2019-02-03T15:21:38.032Z,46.67
2019-02-03T15:24:16.062Z,44.20
2019-02-03T15:26:33.233Z,44.57
2019-02-03T15:29:01.125Z,48.03
2019-02-03T15:31:28.712Z,47.90
2019-02-03T15:33:58.256Z,41.43
2019-02-03T15:36:25.836Z,50.83
2019-02-03T15:38:53.456Z,47.63
2019-02-03T15:41:22.030Z,48.63
2019-02-03T15:43:50.515Z,48.07
2019-02-03T15:46:18.097Z,46.57
2019-02-03T15:48:45.687Z,41.10
2019-02-03T15:51:14.032Z,40.63
2019-02-03T15:53:41.613Z,49.53
2019-02-03T15:56:09.195Z,48.60
2019-02-03T15:58:36.780Z,42.90
2019-02-03T16:01:04.371Z,44.37
2019-02-03T16:03:33.915Z,51.93
2019-02-03T16:06:01.502Z,53.17
2019-02-03T16:08:29.084Z,52.23
2019-02-03T16:10:56.665Z,54.17
2019-02-03T16:13:36.482Z,50.87
2019-02-03T16:15:52.790Z,47.27
2019-02-03T16:18:20.363Z,52.10
2019-02-03T16:20:48.711Z,48.43
2019-02-03T16:23:16.308Z,57.93
2019-02-03T16:25:43.879Z,50.43
2019-02-03T16:28:13.407Z,66.57
2019-02-03T16:30:41.015Z,53.47
2019-02-03T16:33:09.514Z,65.53
2019-02-03T16:35:37.927Z,53.55
2019-02-03T16:38:05.517Z,53.00
2019-02-03T16:40:34.092Z,54.73
2019-02-03T16:43:01.673Z,49.60
2019-02-03T16:45:30.018Z,46.60
2019-02-03T16:47:57.599Z,50.03
2019-02-03T16:50:25.262Z,50.70
2019-02-03T16:52:52.833Z,44.93
2019-02-03T16:55:20.532Z,52.43
2019-02-03T16:57:48.121Z,48.90
2019-02-03T17:00:19.916Z,44.87
2019-02-03T17:02:47.505Z,53.83
2019-02-03T17:05:25.200Z,44.50
2019-02-03T17:07:42.708Z,45.50
2019-02-03T17:10:11.095Z,45.80
2019-02-03T17:12:39.635Z,45.50
2019-02-03T17:18:02.601Z,58.47
2019-02-03T17:20:31.260Z,51.83
2019-02-03T17:22:58.840Z,45.73
2019-02-03T17:25:33.523Z,47.33
2019-02-03T17:28:00.955Z,45.60
2019-02-03T17:30:28.572Z,44.17
2019-02-03T17:32:56.160Z,41.60
2019-02-03T17:35:23.800Z,45.47
2019-02-03T17:37:51.501Z,45.57
2019-02-03T17:40:19.088Z,40.03
2019-02-03T17:42:46.669Z,51.80
2019-02-03T17:45:15.948Z,53.13
2019-02-03T17:47:43.568Z,52.60
2019-02-03T17:50:11.149Z,54.17
2019-02-03T17:52:39.298Z,47.30
2019-02-03T17:55:06.352Z,47.20
2019-02-03T17:57:35.868Z,60.80
2019-02-03T18:00:05.145Z,55.13
2019-02-03T18:02:33.948Z,56.17
2019-02-03T18:05:00.397Z,60.23
2019-02-03T18:07:27.980Z,49.97
2019-02-03T18:09:57.287Z,47.47
2019-02-03T18:12:25.632Z,57.17
2019-02-03T18:14:53.213Z,42.70
2019-02-03T18:17:22.780Z,48.80
2019-02-03T18:19:52.276Z,42.63
2019-02-03T18:22:19.853Z,43.33
2019-02-03T18:24:47.432Z,43.17
2019-02-03T18:27:16.983Z,37.23
2019-02-03T18:29:44.562Z,39.07
2019-02-03T18:32:14.679Z,46.20
2019-02-03T18:34:40.596Z,41.90
2019-02-03T18:37:08.175Z,42.13
2019-02-03T18:39:36.198Z,43.80
2019-02-03T18:42:03.780Z,37.97
2019-02-03T18:44:36.163Z,45.73
2019-02-03T18:47:00.949Z,38.17
2019-02-03T18:49:28.562Z,56.77
2019-02-03T18:51:56.350Z,54.23
2019-02-03T18:54:23.960Z,57.10
2019-02-03T18:56:51.736Z,46.23
2019-02-03T18:59:19.314Z,46.97
2019-02-03T19:01:46.914Z,39.77
2019-02-03T19:04:14.532Z,38.50
2019-02-03T19:06:42.104Z,41.50
2019-02-03T19:09:09.690Z,42.77
2019-02-03T19:11:37.266Z,48.30
2019-02-03T19:14:04.835Z,39.00
2019-02-03T19:16:32.413Z,40.60
2019-02-03T19:19:00.097Z,45.00
2019-02-03T19:21:27.764Z,40.70
2019-02-03T19:23:55.305Z,37.87
2019-02-03T19:26:24.823Z,33.40
2019-02-03T19:28:52.399Z,37.10
2019-02-03T19:31:20.217Z,37.47
2019-02-03T19:33:47.795Z,31.43
2019-02-03T19:36:15.421Z,32.73
2019-02-03T19:38:42.994Z,41.90
2019-02-03T19:41:10.581Z,40.67
2019-02-03T19:43:38.169Z,35.70
2019-02-03T19:46:05.765Z,36.63
2019-02-03T19:48:33.350Z,35.50
2019-02-03T19:51:01.873Z,37.77
2019-02-03T19:53:29.455Z,37.53
2019-02-03T19:55:57.040Z,40.67
2019-02-03T19:58:24.628Z,45.77
2019-02-03T20:00:52.209Z,38.60
2019-02-03T20:03:19.790Z,35.63
2019-02-03T20:05:47.621Z,32.87
2019-02-03T20:08:15.243Z,33.57
2019-02-03T20:10:43.197Z,33.43
2019-02-03T20:13:10.817Z,31.20
2019-02-03T20:15:38.407Z,33.70
2019-02-03T20:18:05.983Z,30.70
2019-02-03T20:20:34.860Z,29.20
2019-02-03T20:23:02.464Z,32.03
2019-02-03T20:25:31.065Z,28.93
2019-02-03T20:27:58.644Z,28.27
2019-02-03T20:30:37.957Z,34.97
2019-02-03T20:32:54.753Z,42.90
2019-02-03T20:35:22.335Z,35.00
2019-02-03T20:37:49.925Z,37.10
2019-02-03T20:40:19.989Z,36.80
2019-02-03T20:42:48.333Z,29.87
2019-02-03T20:45:21.292Z,28.27
2019-02-03T20:47:43.586Z,35.47
2019-02-03T20:50:12.631Z,30.37
2019-02-03T20:52:40.377Z,32.73
2019-02-03T20:55:08.981Z,33.13
2019-02-03T20:57:36.573Z,31.17
2019-02-03T21:00:08.384Z,32.33
2019-02-03T21:02:36.896Z,30.17
2019-02-03T21:05:07.153Z,33.37
2019-02-03T21:07:34.732Z,43.67
2019-02-03T21:10:02.307Z,37.30
2019-02-03T21:12:29.885Z,32.80
2019-02-03T21:14:57.468Z,30.23
2019-02-03T21:17:25.048Z,35.77
2019-02-03T21:19:53.130Z,29.83
2019-02-03T21:22:20.708Z,26.80
2019-02-03T21:24:49.329Z,27.30
2019-02-03T21:27:16.970Z,32.47
2019-02-03T21:29:44.557Z,31.03
2019-02-03T21:32:14.062Z,27.37
2019-02-03T21:34:41.854Z,29.80
2019-02-03T21:37:09.432Z,29.47
2019-02-03T21:39:37.008Z,28.23
2019-02-03T21:42:04.582Z,31.67
2019-02-03T21:44:32.168Z,33.13
2019-02-03T21:46:59.752Z,36.17
2019-02-03T21:49:27.324Z,29.40
2019-02-03T21:51:54.905Z,34.13
2019-02-03T21:54:23.249Z,36.47
2019-02-03T21:56:50.825Z,36.33
2019-02-03T21:59:19.412Z,31.00
2019-02-03T22:01:47.000Z,33.00
2019-02-03T22:04:14.585Z,27.83
2019-02-03T22:06:42.156Z,31.47
2019-02-03T22:09:09.741Z,33.50
2019-02-03T22:11:37.327Z,31.80
2019-02-03T22:14:04.913Z,33.20
2019-02-03T22:16:32.490Z,41.60
2019-02-03T22:19:00.890Z,32.13
2019-02-03T22:21:29.592Z,34.57
2019-02-03T22:23:57.940Z,30.63
2019-02-03T22:26:26.444Z,34.60
2019-02-03T22:28:54.020Z,32.57
2019-02-03T22:31:21.606Z,29.53
2019-02-03T22:33:49.181Z,32.83
2019-02-03T22:36:16.778Z,31.10
2019-02-03T22:38:45.128Z,30.40
2019-02-03T22:41:12.701Z,34.27
2019-02-03T22:43:40.280Z,37.23
2019-02-03T22:46:07.917Z,30.73
2019-02-03T22:48:36.492Z,33.40
2019-02-03T22:51:04.069Z,29.10
2019-02-03T22:53:33.608Z,33.50
2019-02-03T22:56:02.173Z,34.20
2019-02-03T22:58:29.763Z,32.47
2019-02-03T23:00:58.153Z,26.40
2019-02-03T23:03:30.306Z,27.00
2019-02-03T23:05:57.893Z,29.13
2019-02-03T23:08:25.479Z,30.30
2019-02-03T23:10:53.055Z,30.90
2019-02-03T23:13:20.640Z,28.77
2019-02-03T23:15:48.259Z,28.00
2019-02-03T23:18:15.883Z,29.13
2019-02-03T23:20:43.458Z,26.50
2019-02-03T23:23:11.041Z,31.63
2019-02-03T23:25:38.612Z,32.93
2019-02-03T23:28:06.197Z,34.20
2019-02-03T23:30:33.772Z,26.83
2019-02-03T23:33:01.352Z,30.00
2019-02-03T23:35:28.936Z,28.07
2019-02-03T23:37:58.493Z,33.93
2019-02-03T23:40:26.992Z,31.67
2019-02-03T23:42:54.572Z,32.90
2019-02-03T23:45:22.160Z,33.73
2019-02-03T23:47:49.788Z,34.70
2019-02-03T23:50:18.416Z,31.90
2019-02-03T23:52:46.017Z,30.70
2019-02-03T23:55:13.600Z,34.47
2019-02-03T23:57:41.193Z,26.80
